Time;durP1;ratioP1;P1;durP2;ratioP2;P2;SDS_P1;SDS_P2;PMS_P1;PMS_P2;Temp;Humidity;BMP_temperature;BMP_pressure;BME280_temperature;BME280_humidity;BME280_pressure;Samples;Min_cycle;Max_cycle;Signal;HPM_P1;HPM_P2
2023/10/23 00:02:08;;;;;;;5.75;2.60;;;8.10;99.90;;;7.62;100.00;97011.47;5037980;28;20093;-39
2023/10/23 00:04:34;;;;;;;5.25;2.80;;;8.10;99.90;;;7.53;100.00;97006.50;5041006;28;20025;-38
2023/10/23 00:07:00;;;;;;;6.15;2.53;;;8.00;99.90;;;7.53;100.00;97009.97;5051661;28;20040;-39
2023/10/23 00:09:25;;;;;;;4.95;2.10;;;8.00;99.90;;;7.43;100.00;97006.81;5060403;28;20029;-39
2023/10/23 00:11:51;;;;;;;6.38;2.53;;;8.00;99.90;;;7.50;100.00;97017.09;5052819;28;20201;-39
2023/10/23 00:14:17;;;;;;;4.63;2.20;;;8.00;99.90;;;7.47;100.00;97014.59;5039223;28;20061;-38
2023/10/23 00:16:42;;;;;;;6.43;2.20;;;8.00;99.90;;;7.47;100.00;97015.44;5052534;28;20032;-38
2023/10/23 00:19:08;;;;;;;3.88;1.85;;;7.90;99.90;;;7.43;100.00;97025.16;5053944;28;20129;-39
2023/10/23 00:21:34;;;;;;;4.75;2.35;;;7.90;99.90;;;7.42;100.00;97018.19;5048321;28;20048;-39
2023/10/23 00:23:59;;;;;;;4.55;2.17;;;7.90;99.90;;;7.31;100.00;97008.94;5063468;28;21049;-40
2023/10/23 00:26:25;;;;;;;5.90;2.40;;;7.90;99.90;;;7.33;100.00;97021.09;5054229;28;20037;-39
2023/10/23 00:28:51;;;;;;;5.68;2.55;;;7.80;99.90;;;7.32;100.00;97035.13;5056912;28;20036;-39
2023/10/23 00:31:17;;;;;;;4.53;2.17;;;7.80;99.90;;;7.30;100.00;97042.16;5062552;28;20025;-40
2023/10/23 00:33:42;;;;;;;4.47;2.25;;;7.80;99.90;;;7.28;100.00;97033.47;5062960;28;20043;-38
2023/10/23 00:36:08;;;;;;;4.55;2.08;;;7.80;99.90;;;7.25;100.00;97037.06;5053971;28;20028;-39
2023/10/23 00:38:34;;;;;;;5.50;2.35;;;7.80;99.90;;;7.25;100.00;97046.72;5057981;28;20036;-40
2023/10/23 00:40:59;;;;;;;2.88;1.70;;;7.70;99.90;;;7.24;100.00;97043.22;5055799;28;20032;-39
2023/10/23 00:43:25;;;;;;;2.78;1.60;;;7.70;99.90;;;7.27;100.00;97044.91;5058748;28;20440;-41
2023/10/23 00:45:59;;;;;;;2.83;1.63;;;7.80;99.90;;;7.30;100.00;97034.28;5053752;28;20046;-37
2023/10/23 00:48:26;;;;;;;4.47;1.58;;;7.80;99.90;;;7.30;100.00;97039.53;5059715;28;20032;-37
2023/10/23 00:50:59;;;;;;;2.75;1.38;;;7.80;99.90;;;7.31;100.00;97035.19;5038553;28;20021;-38
2023/10/23 00:53:27;;;;;;;4.40;1.63;;;7.80;99.90;;;7.32;100.00;97040.38;5057334;28;20035;-39
2023/10/23 00:55:55;;;;;;;4.95;1.58;;;7.80;99.90;;;7.24;100.00;97026.63;5054129;28;20028;-39
2023/10/23 00:58:25;;;;;;;4.40;1.50;;;7.80;99.90;;;7.31;100.00;97041.28;5061441;28;20798;-37
2023/10/23 01:00:52;;;;;;;2.38;1.25;;;7.80;99.90;;;7.28;100.00;97032.63;5052417;28;20060;-38
2023/10/23 01:03:18;;;;;;;4.82;1.20;;;7.80;99.90;;;7.31;100.00;97035.19;5036092;28;20354;-38
2023/10/23 01:05:44;;;;;;;3.53;1.23;;;7.80;99.90;;;7.33;100.00;97025.50;5053371;28;20388;-38
2023/10/23 01:08:11;;;;;;;3.85;1.58;;;7.80;99.90;;;7.36;100.00;97034.13;5057097;28;20135;-38
2023/10/23 01:10:37;;;;;;;4.57;1.73;;;7.80;99.90;;;7.37;100.00;97027.97;5035981;28;20036;-38
2023/10/23 01:13:09;;;;;;;2.45;1.40;;;7.90;99.90;;;7.33;100.00;97020.25;5047092;28;20092;-38
2023/10/23 01:15:35;;;;;;;;;;;7.90;99.90;;;7.34;100.00;97017.59;5061014;28;20123;-39
2023/10/23 01:18:02;;;;;;;3.58;1.80;;;7.90;99.90;;;7.36;100.00;97010.53;5058060;28;20738;-37
2023/10/23 01:20:28;;;;;;;4.03;1.80;;;7.90;99.90;;;7.38;100.00;97018.34;5056973;28;20077;-38
2023/10/23 01:22:58;;;;;;;4.85;1.83;;;7.90;99.90;;;7.30;100.00;97005.44;5041851;28;20424;-38
2023/10/23 01:25:25;;;;;;;5.30;2.00;;;7.80;99.90;;;7.36;100.00;97013.13;5051815;28;20029;-39
2023/10/23 01:27:51;;;;;;;6.75;2.00;;;7.80;99.90;;;7.33;100.00;97010.59;5046306;28;20033;-39
2023/10/23 01:30:16;;;;;;;4.47;1.90;;;7.80;99.90;;;7.28;100.00;97009.88;5019407;28;20070;-39
2023/10/23 01:32:42;;;;;;;5.40;2.17;;;7.80;99.90;;;7.24;100.00;97014.34;5042763;28;20052;-39
2023/10/23 01:35:09;;;;;;;3.65;1.98;;;7.80;99.90;;;7.21;100.00;97016.22;5042022;28;20028;-38
2023/10/23 01:37:35;;;;;;;5.50;2.00;;;7.70;99.90;;;7.16;100.00;97013.75;5052105;28;21529;-37
2023/10/23 01:40:01;;;;;;;5.93;2.10;;;7.60;99.90;;;7.11;100.00;97018.25;5045241;28;20167;-39
2023/10/23 01:42:30;;;;;;;4.35;1.80;;;7.60;99.90;;;7.08;100.00;97021.81;5055010;28;20028;-40
2023/10/23 01:44:56;;;;;;;4.85;2.08;;;7.60;99.90;;;7.03;100.00;97021.13;5047799;28;20455;-39
2023/10/23 01:47:23;;;;;;;3.42;1.73;;;7.50;99.90;;;6.89;100.00;97007.50;5056304;28;20090;-37
2023/10/23 01:49:49;;;;;;;4.55;1.65;;;7.50;99.90;;;6.88;100.00;97019.75;5053919;28;20037;-38
2023/10/23 01:52:16;;;;;;;3.25;1.70;;;7.40;99.90;;;6.86;100.00;97015.47;5054436;28;20032;-37
2023/10/23 01:54:43;;;;;;;3.50;1.70;;;7.40;99.90;;;6.84;100.00;97012.06;5055616;28;20051;-39
2023/10/23 01:57:10;;;;;;;2.65;1.48;;;7.40;99.90;;;6.80;100.00;97007.78;5053901;28;20028;-38
2023/10/23 01:59:36;;;;;;;6.80;1.80;;;7.30;99.90;;;6.81;100.00;97014.75;5058882;28;20120;-38
2023/10/23 02:02:02;;;;;;;4.55;2.00;;;7.30;99.90;;;6.78;100.00;97012.19;5053730;28;20035;-37
2023/10/23 02:04:28;;;;;;;3.42;1.95;;;7.30;99.90;;;6.71;100.00;97006.25;5056729;28;20032;-38
2023/10/23 02:06:54;;;;;;;4.35;1.80;;;7.30;99.90;;;6.72;100.00;97015.00;5056833;28;20388;-37
2023/10/23 02:09:21;;;;;;;3.47;1.85;;;7.20;99.90;;;6.73;100.00;97006.22;5056258;28;20041;-39
2023/10/23 02:11:46;;;;;;;3.95;2.00;;;7.20;99.90;;;6.72;100.00;97012.38;5046147;28;20144;-38
2023/10/23 02:14:12;;;;;;;5.47;1.80;;;7.20;99.90;;;6.68;100.00;97015.09;5048160;28;20497;-38
2023/10/23 02:16:38;;;;;;;3.45;1.70;;;7.20;99.90;;;6.66;100.00;97014.28;5049564;28;20120;-38
2023/10/23 02:19:04;;;;;;;4.35;1.88;;;7.20;99.90;;;6.68;100.00;97014.22;5050087;28;20037;-38
2023/10/23 02:21:30;;;;;;;3.97;2.13;;;7.10;99.90;;;6.64;100.00;97012.56;5058182;28;20035;-38
2023/10/23 02:23:56;;;;;;;2.83;1.77;;;7.20;99.90;;;6.62;100.00;97010.03;5048205;28;20036;-37
2023/10/23 02:26:21;;;;;;;3.30;1.80;;;7.10;99.90;;;6.57;100.00;97006.66;5052821;28;20033;-38
2023/10/23 02:28:47;;;;;;;4.05;2.20;;;7.10;99.90;;;6.56;100.00;97012.78;5039907;28;20237;-38
2023/10/23 02:31:14;;;;;;;6.20;1.85;;;7.10;99.90;;;6.47;100.00;97000.81;5054982;28;20150;-38
2023/10/23 02:33:39;;;;;;;3.17;1.70;;;7.10;99.90;;;6.43;100.00;96995.72;5050283;28;20063;-37
2023/10/23 02:36:06;;;;;;;3.40;1.70;;;7.10;99.90;;;6.51;100.00;97017.28;5058124;28;20029;-37
2023/10/23 02:38:32;;;;;;;3.83;1.65;;;7.10;99.90;;;6.49;100.00;97009.47;5057209;28;20112;-38
2023/10/23 02:40:58;;;;;;;3.85;2.00;;;7.00;99.90;;;6.44;100.00;97002.66;5060919;28;20036;-37
2023/10/23 02:43:24;;;;;;;2.95;1.90;;;7.00;99.90;;;6.40;100.00;97006.25;5055016;28;20028;-38
2023/10/23 02:45:50;;;;;;;3.13;1.70;;;7.00;99.90;;;6.31;100.00;96995.09;5056095;28;20159;-38
2023/10/23 02:48:19;;;;;;;2.35;1.58;;;7.00;99.90;;;6.40;100.00;97014.13;5052710;28;20081;-38
2023/10/23 02:50:57;;;;;;;3.03;1.42;;;6.90;99.90;;;6.37;100.00;97025.53;5041320;28;20038;-38
2023/10/23 02:53:24;;;;;;;3.45;1.60;;;6.90;99.90;;;6.34;100.00;97020.38;5047093;28;20031;-38
2023/10/23 02:55:50;;;;;;;4.85;1.73;;;6.90;99.90;;;6.25;100.00;97011.00;5044868;28;20029;-39
2023/10/23 02:58:17;;;;;;;3.42;1.42;;;6.90;99.90;;;6.28;100.00;97023.13;5050794;28;20089;-39
2023/10/23 03:00:43;;;;;;;2.35;1.50;;;6.80;99.90;;;6.24;100.00;97018.88;5054757;28;20102;-38
2023/10/23 03:03:10;;;;;;;4.03;2.03;;;6.80;99.90;;;6.24;100.00;97016.28;5042290;28;20031;-37
2023/10/23 03:05:36;;;;;;;3.92;1.80;;;6.80;99.90;;;6.21;100.00;97021.56;5052231;28;20036;-37
2023/10/23 03:08:02;;;;;;;3.90;1.90;;;6.80;99.90;;;6.21;100.00;97018.97;5059259;28;20357;-38
2023/10/23 03:10:28;;;;;;;4.90;2.22;;;6.80;99.90;;;6.19;100.00;97016.41;5050877;28;20121;-37
2023/10/23 03:12:54;;;;;;;3.38;2.10;;;6.70;99.90;;;6.19;100.00;97016.41;5052244;28;20025;-37
2023/10/23 03:15:20;;;;;;;3.17;1.75;;;6.70;99.90;;;6.18;100.00;97012.06;5050720;28;20043;-37
2023/10/23 03:17:45;;;;;;;4.70;2.03;;;6.70;99.90;;;6.08;100.00;97000.09;5053257;28;20534;-37
2023/10/23 03:20:11;;;;;;;5.45;2.13;;;6.70;99.90;;;6.09;100.00;97004.44;5047390;28;20066;-38
2023/10/23 03:22:38;;;;;;;4.50;1.73;;;6.70;99.90;;;6.07;100.00;97016.72;5052738;28;20283;-37
2023/10/23 03:25:05;;;;;;;3.05;1.65;;;6.70;99.90;;;6.05;100.00;97013.28;5054007;28;20046;-37
2023/10/23 03:27:32;;;;;;;7.22;2.05;;;6.70;99.90;;;5.98;100.00;97001.25;5051742;28;20471;-37
2023/10/23 03:29:58;;;;;;;3.60;1.85;;;6.60;99.90;;;6.08;100.00;97015.78;5046791;28;20037;-38
2023/10/23 03:32:23;;;;;;;5.80;1.77;;;6.60;99.90;;;6.06;100.00;97018.44;5047247;28;20040;-38
2023/10/23 03:34:49;;;;;;;6.82;2.15;;;6.60;99.90;;;6.05;100.00;97018.50;5051924;28;20127;-37
2023/10/23 03:37:15;;;;;;;6.47;1.70;;;6.60;99.90;;;6.03;100.00;97015.03;5047286;28;20123;-38
2023/10/23 03:39:41;;;;;;;3.78;1.70;;;6.60;99.90;;;6.01;100.00;97014.22;5039946;28;20070;-38
2023/10/23 03:42:08;;;;;;;5.15;2.10;;;6.50;99.90;;;5.97;100.00;97015.22;5054099;28;20128;-38
2023/10/23 03:44:34;;;;;;;3.08;1.58;;;6.50;99.90;;;5.99;100.00;97018.66;5052495;28;20037;-39
2023/10/23 03:47:00;;;;;;;5.10;1.48;;;6.50;99.90;;;5.96;100.00;97013.47;5052645;28;20542;-38
2023/10/23 03:49:27;;;;;;;4.55;1.67;;;6.50;99.90;;;5.95;100.00;97014.38;5049449;28;20025;-38
2023/10/23 03:51:53;;;;;;;3.53;1.63;;;6.50;99.90;;;5.90;100.00;97004.88;5037463;28;20039;-37
2023/10/23 03:54:19;;;;;;;5.32;1.92;;;6.50;99.90;;;5.68;100.00;96972.25;5053200;28;20025;-38
2023/10/23 03:56:44;;;;;;;3.90;1.90;;;6.40;99.90;;;5.78;100.00;96983.34;5051666;28;20027;-37
2023/10/23 03:59:10;;;;;;;4.78;2.40;;;6.40;99.90;;;5.87;100.00;97004.94;5052543;28;20041;-38
2023/10/23 04:01:36;;;;;;;3.47;1.90;;;6.40;99.90;;;5.69;100.00;96981.84;5053434;28;20405;-37
2023/10/23 04:04:01;;;;;;;6.30;2.22;;;6.40;99.90;;;5.84;100.00;97006.78;5047535;28;20059;-38
2023/10/23 04:06:27;;;;;;;3.25;1.77;;;6.40;99.90;;;5.81;100.00;97004.22;5047053;28;20087;-38
2023/10/23 04:08:53;;;;;;;4.75;2.00;;;6.40;99.90;;;5.72;100.00;96997.44;5050914;28;20515;-39
2023/10/23 04:11:19;;;;;;;4.22;2.33;;;6.30;99.90;;;5.77;100.00;96999.97;5056016;28;20119;-38
2023/10/23 04:13:45;;;;;;;5.07;2.08;;;6.30;99.90;;;5.74;100.00;96999.16;5054432;28;21124;-38
2023/10/23 04:16:10;;;;;;;4.80;2.15;;;6.30;99.90;;;5.73;100.00;96999.19;5048938;28;20116;-38
2023/10/23 04:18:36;;;;;;;3.17;2.30;;;6.30;99.90;;;5.54;100.00;96972.59;5049670;28;20040;-37
2023/10/23 04:21:07;;;;;;;2.97;1.90;;;6.30;99.90;;;5.68;100.00;96996.66;5051500;28;20396;-38
2023/10/23 04:23:35;;;;;;;4.10;2.08;;;6.20;99.90;;;5.67;100.00;97000.19;5053179;28;20032;-39
2023/10/23 04:26:01;;;;;;;3.80;1.98;;;6.20;99.90;;;5.65;100.00;97002.00;5050532;28;20127;-38
2023/10/23 04:28:27;;;;;;;5.57;2.10;;;6.20;99.90;;;5.63;100.00;96997.69;5053902;28;20035;-37
2023/10/23 04:30:53;;;;;;;4.30;1.98;;;6.20;99.90;;;5.62;100.00;96994.22;5047573;28;20041;-38
2023/10/23 04:33:22;;;;;;;5.40;1.90;;;6.20;99.90;;;5.60;100.00;96997.75;5051835;28;20120;-37
2023/10/23 04:35:56;;;;;;;3.92;1.95;;;6.10;99.90;;;5.49;100.00;96977.94;5052051;28;20099;-37
2023/10/23 04:38:23;;;;;;;3.53;1.90;;;6.10;99.90;;;5.49;100.00;96983.19;5049960;28;20033;-38
2023/10/23 04:40:50;;;;;;;3.35;2.00;;;6.10;99.90;;;5.54;100.00;96980.44;5056622;28;20047;-38
2023/10/23 04:43:16;;;;;;;4.40;1.90;;;6.10;99.90;;;5.52;100.00;96990.09;5051378;28;20469;-39
2023/10/23 04:45:42;;;;;;;3.10;1.63;;;6.10;99.90;;;5.51;100.00;96988.38;5054773;28;20039;-37
2023/10/23 04:48:09;;;;;;;5.10;2.00;;;6.10;99.90;;;5.49;100.00;96985.78;5054001;28;20408;-38
2023/10/23 04:50:37;;;;;;;4.70;2.00;;;6.00;99.90;;;5.37;100.00;96959.94;5055993;28;20036;-37
2023/10/23 04:53:03;;;;;;;3.88;2.08;;;6.00;99.90;;;5.38;100.00;96972.09;5051211;28;20078;-37
2023/10/23 04:55:38;;;;;;;3.30;2.20;;;6.00;99.90;;;5.46;100.00;96977.16;5055472;28;20136;-38
2023/10/23 04:58:05;;;;;;;5.40;2.28;;;6.00;99.90;;;5.45;100.00;96975.44;5053470;28;20056;-38
2023/10/23 05:00:35;;;;;;;4.50;2.08;;;6.00;99.90;;;5.35;100.00;96959.09;5050509;28;20756;-39
2023/10/23 05:03:03;;;;;;;3.90;2.00;;;6.00;99.90;;;5.32;100.00;96953.94;5055196;28;20032;-38
2023/10/23 05:05:29;;;;;;;5.53;2.10;;;6.00;99.90;;;5.41;100.00;96973.78;5054093;28;20032;-39
2023/10/23 05:07:55;;;;;;;5.25;2.40;;;6.00;99.90;;;5.41;100.00;96969.41;5050228;28;20060;-39
2023/10/23 05:10:21;;;;;;;5.85;2.17;;;6.00;99.90;;;5.40;100.00;96970.31;5029450;28;20491;-38
2023/10/23 05:12:49;;;;;;;3.85;2.20;;;6.00;99.90;;;5.37;100.00;96962.53;5022674;28;20013;-37
2023/10/23 05:15:15;;;;;;;4.43;2.22;;;5.90;99.90;;;5.35;100.00;96953.88;5039092;28;20033;-38
2023/10/23 05:17:41;;;;;;;2.95;1.80;;;5.90;99.90;;;5.34;100.00;96957.38;5052145;28;20110;-39
2023/10/23 05:20:08;;;;;;;6.85;2.13;;;5.90;99.90;;;5.24;100.00;96946.28;5053738;28;20036;-38
2023/10/23 05:22:33;;;;;;;2.90;1.80;;;5.90;99.90;;;5.24;100.00;96950.63;5049177;28;20402;-37
2023/10/23 05:24:59;;;;;;;7.35;2.10;;;5.90;99.90;;;5.33;100.00;96963.50;5050730;28;20032;-38
2023/10/23 05:27:25;;;;;;;8.00;2.25;;;5.90;99.90;;;5.25;100.00;96945.38;5035117;28;20067;-38
2023/10/23 05:29:51;;;;;;;3.08;2.00;;;5.90;99.90;;;5.32;100.00;96965.25;5043601;28;20059;-37
2023/10/23 05:32:17;;;;;;;4.50;2.25;;;5.90;99.90;;;5.26;100.00;96949.72;5047060;28;20119;-38
2023/10/23 05:34:45;;;;;;;4.03;2.25;;;5.90;99.90;;;5.28;100.00;96953.16;5054490;28;20132;-38
2023/10/23 05:37:12;;;;;;;4.00;2.28;;;5.90;99.90;;;5.33;100.00;96966.97;5033726;28;20116;-39
2023/10/23 05:39:38;;;;;;;4.07;2.10;;;5.90;99.90;;;5.30;100.00;96968.81;5035374;28;20949;-38
2023/10/23 05:42:04;;;;;;;5.90;2.47;;;5.90;99.90;;;5.30;100.00;96977.50;5052164;28;20028;-38
2023/10/23 05:44:30;;;;;;;4.05;2.00;;;5.90;99.90;;;5.22;100.00;96961.13;5052930;28;20033;-41
2023/10/23 05:46:55;;;;;;;7.35;2.30;;;5.80;99.90;;;5.27;100.00;96971.47;5056982;28;20090;-39
2023/10/23 05:49:21;;;;;;;4.30;2.13;;;5.90;99.90;;;5.27;100.00;96977.56;5041616;28;20041;-38
2023/10/23 05:51:47;;;;;;;8.32;2.75;;;5.80;99.90;;;5.27;100.00;96979.31;5046989;28;20039;-38
2023/10/23 05:54:14;;;;;;;6.78;2.67;;;5.80;99.90;;;5.22;100.00;96975.94;5047675;28;20102;-38
2023/10/23 05:56:40;;;;;;;3.78;2.28;;;5.80;99.90;;;5.24;100.00;96989.84;5047562;28;20129;-40
2023/10/23 05:59:06;;;;;;;5.40;2.65;;;5.90;99.90;;;5.24;100.00;96998.56;5061151;28;20631;-40
2023/10/23 06:01:31;;;;;;;4.80;2.50;;;5.90;99.90;;;5.25;100.00;96994.19;5055796;28;20060;-38
2023/10/23 06:03:57;;;;;;;6.93;2.40;;;5.90;99.90;;;5.27;100.00;96993.25;5056290;28;20040;-39
2023/10/23 06:06:23;;;;;;;5.22;2.38;;;5.90;99.90;;;5.29;100.00;96996.72;5060210;28;20033;-38
2023/10/23 06:08:48;;;;;;;5.88;2.60;;;5.90;99.90;;;5.33;100.00;96995.75;5055491;28;20057;-40
2023/10/23 06:11:14;;;;;;;5.85;2.40;;;5.90;99.90;;;5.27;100.00;96982.78;5058841;28;20404;-39
2023/10/23 06:13:40;;;;;;;6.05;2.40;;;6.00;99.90;;;5.38;100.00;96997.38;5056725;28;20113;-38
2023/10/23 06:16:07;;;;;;;7.50;2.55;;;6.00;99.90;;;5.38;100.00;96992.16;5037609;28;23584;-39
2023/10/23 06:18:37;;;;;;;5.93;2.25;;;6.00;99.90;;;5.42;100.00;96993.78;5052414;28;20241;-39
2023/10/23 06:21:05;;;;;;;5.10;2.50;;;6.00;99.90;;;5.43;100.00;96991.16;5054113;28;20029;-38
2023/10/23 06:23:38;;;;;;;5.47;2.10;;;6.00;99.90;;;5.47;100.00;96997.16;5051607;28;20036;-39
2023/10/23 06:26:08;;;;;;;5.43;2.22;;;6.10;99.90;;;5.47;100.00;96981.47;5055381;28;20514;-39
2023/10/23 06:28:35;;;;;;;5.60;2.30;;;6.10;99.90;;;5.56;100.00;96994.34;5042386;28;20067;-39
2023/10/23 06:31:08;;;;;;;8.98;2.10;;;6.10;99.90;;;5.60;100.00;96990.78;5056263;28;20431;-38
2023/10/23 06:33:35;;;;;;;5.95;2.10;;;6.20;99.90;;;5.63;100.00;96982.81;5036911;28;20835;-38
2023/10/23 06:36:01;;;;;;;4.88;2.50;;;6.20;99.90;;;5.67;100.00;96984.50;5042866;28;20396;-40
2023/10/23 06:38:27;;;;;;;4.35;2.42;;;6.30;99.90;;;5.72;100.00;96984.38;5032787;28;20384;-38
2023/10/23 06:40:53;;;;;;;10.45;2.08;;;6.30;99.90;;;5.79;100.00;96985.09;5052222;28;20032;-39
2023/10/23 06:43:18;;;;;;;4.88;2.28;;;6.40;99.90;;;5.84;100.00;96989.31;5053418;28;20032;-39
2023/10/23 06:45:44;;;;;;;5.53;2.53;;;6.40;99.90;;;5.95;100.00;96996.88;5047566;28;20028;-40
2023/10/23 06:48:10;;;;;;;8.27;3.25;;;6.50;99.90;;;6.09;100.00;96993.97;5037780;28;20055;-39
2023/10/23 06:50:36;;;;;;;9.98;3.17;;;6.60;99.90;;;6.12;100.00;96980.81;5053726;28;20029;-38
2023/10/23 06:53:02;;;;;;;9.60;3.60;;;6.80;99.90;;;6.24;100.00;96985.69;5057015;28;20032;-38
2023/10/23 06:55:28;;;;;;;8.43;3.45;;;6.90;99.90;;;6.36;100.00;96981.91;5050943;28;20420;-38
2023/10/23 06:57:54;;;;;;;10.57;3.67;;;7.00;99.90;;;6.54;100.00;96980.53;5058464;28;20530;-37
2023/10/23 07:00:20;;;;;;;7.97;3.95;;;7.10;99.90;;;6.67;100.00;96981.91;5053883;28;20052;-39
2023/10/23 07:02:49;;;;;;;7.97;3.45;;;7.20;99.90;;;6.72;100.00;96965.22;5049139;28;20029;-39
2023/10/23 07:05:15;;;;;;;9.25;3.75;;;7.30;99.90;;;6.89;100.00;96960.31;5047583;28;20090;-38
2023/10/23 07:07:41;;;;;;;7.95;3.40;;;7.50;99.90;;;7.02;100.00;96963.47;5056399;28;20115;-38
2023/10/23 07:10:07;;;;;;;7.28;3.42;;;7.60;99.90;;;7.12;100.00;96964.03;5053808;28;20045;-39
2023/10/23 07:12:33;;;;;;;8.57;3.70;;;7.70;99.90;;;7.22;100.00;96961.09;5055125;28;20119;-42
2023/10/23 07:14:59;;;;;;;7.70;3.28;;;7.80;99.90;;;7.35;100.00;96961.56;5033851;28;20047;-39
2023/10/23 07:17:24;;;;;;;6.72;3.35;;;7.90;99.90;;;7.40;100.00;96956.19;5050081;28;20052;-39
2023/10/23 07:19:51;;;;;;;6.63;3.45;;;8.00;99.90;;;7.56;100.00;96960.03;5049546;28;20036;-39
2023/10/23 07:22:17;;;;;;;8.05;3.65;;;8.10;99.90;;;7.64;100.00;96954.53;5034035;28;20083;-38
2023/10/23 07:24:43;;;;;;;6.47;2.85;;;8.20;99.90;;;7.78;100.00;96961.97;5049088;28;20060;-38
2023/10/23 07:27:11;;;;;;;7.05;3.20;;;8.30;99.90;;;7.88;100.00;96960.78;5056308;28;20131;-38
2023/10/23 07:29:37;;;;;;;6.55;3.30;;;8.40;99.90;;;7.98;100.00;96963.94;5047828;28;20433;-40
2023/10/23 07:32:03;;;;;;;6.88;3.40;;;8.50;99.90;;;8.02;100.00;96955.03;5052164;28;20044;-41
2023/10/23 07:34:29;;;;;;;7.18;3.22;;;8.60;99.90;;;8.08;100.00;96948.75;5053581;28;20036;-38
2023/10/23 07:36:55;;;;;;;7.40;3.85;;;8.70;99.90;;;8.03;100.00;96926.09;5037228;28;20028;-39
2023/10/23 07:39:21;;;;;;;6.97;3.35;;;8.70;99.90;;;8.21;100.00;96937.72;5057526;28;20028;-39
2023/10/23 07:41:47;;;;;;;9.68;3.63;;;8.80;99.90;;;8.36;100.00;96949.50;5058923;28;20043;-38
2023/10/23 07:44:12;;;;;;;7.18;3.70;;;8.90;99.90;;;8.44;100.00;96951.03;5053179;28;20024;-38
2023/10/23 07:46:38;;;;;;;8.27;3.28;;;9.00;99.90;;;8.52;100.00;96949.81;5052627;28;20041;-38
2023/10/23 07:49:04;;;;;;;7.00;3.67;;;9.10;99.90;;;8.58;100.00;96943.50;5054463;28;20507;-37
2023/10/23 07:51:30;;;;;;;7.30;3.65;;;9.20;99.90;;;8.69;100.00;96948.38;5045797;28;20548;-39
2023/10/23 07:53:56;;;;;;;10.55;3.40;;;9.30;99.90;;;8.82;100.00;96946.13;5051546;28;20017;-36
2023/10/23 07:56:21;;;;;;;8.00;3.78;;;9.30;99.90;;;8.91;100.00;96936.13;5055130;28;20112;-37
2023/10/23 07:58:47;;;;;;;7.38;3.45;;;9.40;99.90;;;9.04;100.00;96943.56;5053125;28;20032;-36
2023/10/23 08:01:13;;;;;;;7.72;3.60;;;9.50;99.90;;;9.14;100.00;96952.81;5046384;28;20024;-38
2023/10/23 08:03:39;;;;;;;6.82;3.50;;;9.60;99.90;;;9.21;100.00;96941.13;5056559;28;20074;-37
2023/10/23 08:06:08;;;;;;;16.20;4.93;;;9.70;99.90;;;9.21;100.00;96933.25;5043050;28;20116;-39
2023/10/23 08:08:39;;;;;;;11.20;4.50;;;9.70;99.90;;;9.29;100.00;96940.84;5037047;28;20485;-37
2023/10/23 08:11:08;;;;;;;8.93;3.83;;;9.80;99.90;;;9.28;100.00;96924.19;5054966;28;20117;-39
2023/10/23 08:13:34;;;;;;;10.07;3.55;;;9.90;99.90;;;9.42;100.00;96928.03;5042289;28;20121;-39
2023/10/23 08:16:01;;;;;;;9.15;3.38;;;9.90;99.90;;;9.54;100.00;96924.91;5044661;28;20024;-38
2023/10/23 08:18:27;;;;;;;5.70;3.30;;;10.00;99.90;;;9.68;100.00;96933.13;5029439;28;20067;-37
2023/10/23 08:20:53;;;;;;;7.50;3.85;;;10.20;99.90;;;9.75;100.00;96925.84;5045492;28;20044;-38
2023/10/23 08:23:18;;;;;;;5.93;3.42;;;10.20;99.90;;;9.82;100.00;96923.81;5049475;28;20112;-38
2023/10/23 08:25:44;;;;;;;7.88;3.55;;;10.30;99.90;;;9.88;100.00;96928.81;5054022;28;20417;-38
2023/10/23 08:28:10;;;;;;;5.78;3.50;;;10.40;99.90;;;9.70;100.00;96893.56;5050172;28;20033;-38
2023/10/23 08:30:36;;;;;;;9.00;3.65;;;10.40;99.90;;;9.84;100.00;96916.69;5046867;28;20036;-38
2023/10/23 08:33:03;;;;;;;7.03;4.15;;;10.40;99.90;;;9.92;100.00;96920.72;5050598;28;20033;-38
2023/10/23 08:35:29;;;;;;;9.73;3.40;;;10.50;99.90;;;10.04;100.00;96929.03;5047517;28;20036;-38
2023/10/23 08:37:55;;;;;;;7.53;4.03;;;10.50;99.90;;;10.07;100.00;96926.28;5056573;28;20024;-38
2023/10/23 08:40:22;;;;;;;9.15;3.10;;;10.60;99.90;;;10.17;100.00;96929.34;5048528;28;20040;-38
2023/10/23 08:42:48;;;;;;;13.88;3.95;;;10.60;99.90;;;10.25;100.00;96928.09;5054096;28;20060;-38
2023/10/23 08:45:15;;;;;;;7.00;3.90;;;10.70;99.90;;;10.33;100.00;96951.53;5053999;28;20033;-38
2023/10/23 08:47:41;;;;;;;7.13;3.33;;;10.80;99.90;;;10.44;100.00;96943.16;5057157;28;20035;-38
2023/10/23 08:50:07;;;;;;;6.15;3.60;;;10.90;99.90;;;10.55;100.00;96940.91;5056836;28;20051;-38
2023/10/23 08:52:44;;;;;;;9.45;3.92;;;11.00;99.90;;;10.67;100.00;96940.34;5058844;28;20059;-38
2023/10/23 08:55:15;;;;;;;9.85;4.03;;;11.10;99.90;;;10.71;100.00;96935.78;5055584;28;20024;-38
2023/10/23 08:57:51;;;;;;;10.88;4.43;;;11.20;99.90;;;10.72;100.00;96936.66;5053396;28;20064;-38
2023/10/23 09:00:17;;;;;;;11.45;4.38;;;11.20;99.90;;;10.81;100.00;96930.97;5031148;28;20331;-38
2023/10/23 09:02:43;;;;;;;6.50;3.40;;;11.20;99.90;;;10.77;100.00;96911.78;5056718;28;20844;-38
2023/10/23 09:05:08;;;;;;;12.68;3.90;;;11.30;99.90;;;11.01;100.00;96927.41;5054295;28;20638;-38
2023/10/23 09:07:35;;;;;;;7.53;3.90;;;11.40;99.90;;;11.11;100.00;96919.91;5059598;28;20511;-39
2023/10/23 09:10:05;;;;;;;10.43;3.47;;;11.50;99.90;;;11.02;100.00;96894.84;5053296;28;20275;-38
2023/10/23 09:12:36;;;;;;;7.03;3.28;;;11.60;99.90;;;11.27;100.00;96913.03;5050657;28;20114;-38
2023/10/23 09:15:20;;;;;;;7.20;3.60;;;11.70;99.90;;;11.35;100.00;96908.22;5051147;28;20028;-39
2023/10/23 09:17:49;;;;;;;6.80;3.20;;;11.80;99.90;;;11.41;100.00;96909.69;5052022;28;20404;-38
2023/10/23 09:20:24;;;;;;;7.47;3.13;;;11.90;99.90;;;11.48;100.00;96911.13;5050991;28;20164;-38
2023/10/23 09:22:54;;;;;;;5.32;2.90;;;11.90;99.90;;;11.53;100.00;96903.81;5053707;28;20035;-38
2023/10/23 09:25:24;;;;;;;8.07;3.38;;;12.00;99.90;;;11.60;100.00;96904.38;5053771;28;20294;-38
2023/10/23 09:27:51;;;;;;;6.50;3.05;;;12.00;99.90;;;11.62;100.00;96898.09;5054548;28;20142;-37
2023/10/23 09:30:24;;;;;;;5.88;2.90;;;12.10;99.90;;;11.72;100.00;96905.56;5053658;28;20025;-39
2023/10/23 09:32:51;;;;;;;7.07;3.45;;;12.20;99.90;;;11.69;100.00;96892.53;5060024;28;20092;-38
2023/10/23 09:35:18;;;;;;;8.23;2.85;;;12.20;99.90;;;11.76;100.00;96902.69;5059200;28;20751;-38
2023/10/23 09:37:44;;;;;;;8.93;2.97;;;12.20;99.90;;;11.76;100.00;96907.13;5054097;28;20035;-39
2023/10/23 09:40:13;;;;;;;4.95;2.70;;;12.20;99.90;;;11.75;100.00;96914.19;5049638;28;20715;-38
2023/10/23 09:42:40;;;;;;;4.28;2.88;;;12.20;99.90;;;11.75;100.00;96915.97;5053392;28;20110;-38
2023/10/23 09:45:06;;;;;;;9.60;2.97;;;12.20;99.90;;;11.73;100.00;96916.06;5040555;28;20061;-38
2023/10/23 09:47:32;;;;;;;6.35;2.65;;;12.20;99.90;;;11.77;100.00;96920.28;5040736;28;20105;-38
2023/10/23 09:49:59;;;;;;;9.57;3.45;;;12.20;99.90;;;11.77;100.00;96920.28;5058152;28;20032;-38
2023/10/23 09:52:27;;;;;;;12.27;3.33;;;12.20;99.90;;;11.77;100.00;96928.19;5056448;28;20028;-39
2023/10/23 09:55:06;;;;;;;7.95;3.95;;;12.20;99.90;;;11.80;100.00;96933.31;5060908;28;20111;-38
2023/10/23 09:57:40;;;;;;;11.90;3.55;;;12.20;99.90;;;11.80;100.00;96928.03;5051880;28;20016;-38
2023/10/23 10:00:14;;;;;;;6.82;3.63;;;12.20;99.90;;;11.74;100.00;96930.97;5034905;28;20029;-38
2023/10/23 10:02:48;;;;;;;10.40;3.60;;;12.20;99.90;;;11.72;100.00;96926.69;5055781;28;20044;-38
2023/10/23 10:05:25;;;;;;;6.53;2.80;;;12.20;99.90;;;11.64;100.00;96917.34;5057218;28;20078;-38
2023/10/23 10:08:04;;;;;;;9.02;3.35;;;12.10;99.90;;;11.65;100.00;96915.59;5064971;28;20088;-38
2023/10/23 10:10:32;;;;;;;6.35;3.22;;;12.10;99.90;;;11.61;100.00;96912.25;5034253;28;20064;-36
2023/10/23 10:12:58;;;;;;;7.88;3.30;;;12.10;99.90;;;11.65;100.00;96903.22;5053161;28;20024;-38
2023/10/23 10:15:25;;;;;;;11.25;3.38;;;12.20;99.90;;;11.72;100.00;96906.44;5035399;28;20255;-40
2023/10/23 10:17:51;;;;;;;6.57;3.58;;;12.20;99.90;;;11.79;100.00;96906.97;5050495;28;20084;-39
2023/10/23 10:20:20;;;;;;;9.27;2.92;;;12.20;99.90;;;11.84;100.00;96897.03;5039168;28;20028;-38
2023/10/23 10:22:54;;;;;;;8.07;3.60;;;12.30;99.90;;;11.92;100.00;96897.53;5049987;28;20033;-39